createdAt,value
2022-12-15T00:00:18.920Z,-6.30
2022-12-15T00:05:39.635Z,-6.30
2022-12-15T00:11:00.605Z,-6.40
2022-12-15T00:16:22.141Z,-6.40
2022-12-15T00:21:43.235Z,-6.50
2022-12-15T00:27:04.193Z,-6.50
2022-12-15T00:32:25.349Z,-6.50
2022-12-15T00:37:46.983Z,-6.60
2022-12-15T00:42:49.763Z,-6.60
2022-12-15T00:47:52.256Z,-6.70
2022-12-15T00:53:13.131Z,-6.60
2022-12-15T00:58:33.942Z,-6.70
2022-12-15T01:03:54.765Z,-6.80
2022-12-15T01:09:15.721Z,-6.80
2022-12-15T01:14:36.474Z,-6.90
2022-12-15T01:19:57.311Z,-7.00
2022-12-15T01:24:59.704Z,-7.00
2022-12-15T01:30:02.798Z,-7.00
2022-12-15T01:35:06.480Z,-7.00
2022-12-15T01:40:32.739Z,-7.00
2022-12-15T01:45:48.028Z,-7.00
2022-12-15T01:51:25.269Z,-7.10
2022-12-15T01:56:35.390Z,-7.20
2022-12-15T02:01:40.425Z,-7.20
2022-12-15T02:06:45.861Z,-7.20
2022-12-15T02:12:15.523Z,-7.20
2022-12-15T02:17:42.083Z,-7.30
2022-12-15T02:23:02.444Z,-7.30
2022-12-15T02:28:21.598Z,-7.40
2022-12-15T02:33:30.122Z,-7.40
2022-12-15T02:38:39.339Z,-7.30
2022-12-15T02:43:42.011Z,-7.20
2022-12-15T02:49:30.825Z,-7.40
2022-12-15T02:55:15.763Z,-7.50
2022-12-15T03:00:18.975Z,-7.50
2022-12-15T03:05:24.300Z,-7.50
2022-12-15T03:10:27.052Z,-7.50
2022-12-15T03:15:35.086Z,-7.60
2022-12-15T03:20:38.085Z,-7.60
2022-12-15T03:25:40.442Z,-7.60
2022-12-15T03:30:42.834Z,-7.60
2022-12-15T03:35:45.279Z,-7.60
2022-12-15T03:40:47.755Z,-7.80
2022-12-15T03:45:50.832Z,-7.80
2022-12-15T03:50:54.011Z,-7.80
2022-12-15T03:55:56.416Z,-7.80
2022-12-15T04:00:58.907Z,-7.90
2022-12-15T04:06:01.379Z,-7.90
2022-12-15T04:11:03.742Z,-7.90
2022-12-15T04:16:06.517Z,-7.90
2022-12-15T04:21:09.090Z,-8.20
2022-12-15T04:26:29.896Z,-7.90
2022-12-15T04:31:52.809Z,-8.10
2022-12-15T04:37:14.207Z,-8.00
2022-12-15T04:42:35.132Z,-8.20
2022-12-15T04:47:56.278Z,-8.20
2022-12-15T04:53:33.780Z,-8.10
2022-12-15T04:58:55.180Z,-8.10
2022-12-15T05:04:15.995Z,-8.20
2022-12-15T05:09:36.881Z,-8.30
2022-12-15T05:14:57.856Z,-8.20
2022-12-15T05:20:18.795Z,-8.20
2022-12-15T05:25:39.579Z,-8.20
2022-12-15T05:31:00.398Z,-8.30
2022-12-15T05:36:03.075Z,-8.30
2022-12-15T05:41:05.601Z,-8.30
2022-12-15T05:46:08.093Z,-8.50
2022-12-15T05:51:12.518Z,-8.50
2022-12-15T05:56:15.670Z,-8.60
2022-12-15T06:01:19.318Z,-8.60
2022-12-15T06:06:21.826Z,-8.80
2022-12-15T06:11:24.365Z,-8.70
2022-12-15T06:16:28.319Z,-8.70
2022-12-15T06:21:35.550Z,-8.60
2022-12-15T06:26:39.791Z,-8.50
2022-12-15T06:31:42.843Z,-8.50
2022-12-15T06:36:46.154Z,-8.40
2022-12-15T06:41:48.584Z,-8.50
2022-12-15T06:46:53.870Z,-8.50
2022-12-15T06:51:56.645Z,-8.50
2022-12-15T06:56:59.099Z,-8.40
2022-12-15T07:02:01.907Z,-8.30
2022-12-15T07:07:04.446Z,-8.20
2022-12-15T07:12:07.747Z,-8.10
2022-12-15T07:17:13.420Z,-8.00
2022-12-15T07:22:16.010Z,-7.90
2022-12-15T07:27:18.451Z,-7.90
2022-12-15T07:32:21.082Z,-7.90
2022-12-15T07:37:23.592Z,-7.90
2022-12-15T07:42:28.829Z,-7.90
2022-12-15T07:47:32.161Z,-7.80
2022-12-15T07:52:35.067Z,-7.70
2022-12-15T07:57:37.529Z,-7.60
2022-12-15T08:02:41.864Z,-7.60
2022-12-15T08:07:45.984Z,-7.60
2022-12-15T08:12:48.387Z,-7.40
2022-12-15T08:17:50.832Z,-7.30
2022-12-15T08:22:53.182Z,-7.10
2022-12-15T08:27:56.195Z,-7.00
2022-12-15T08:32:58.589Z,-6.90
2022-12-15T08:38:05.418Z,-6.90
2022-12-15T08:43:08.366Z,-6.70
2022-12-15T08:48:10.760Z,-6.60
2022-12-15T08:53:30.891Z,-6.50
2022-12-15T08:58:37.145Z,-6.30
2022-12-15T09:03:40.770Z,-6.10
2022-12-15T09:08:43.330Z,-5.90
2022-12-15T09:13:45.730Z,-5.70
2022-12-15T09:18:50.675Z,-5.40
2022-12-15T09:23:55.350Z,-5.20
2022-12-15T09:28:57.896Z,-5.10
2022-12-15T09:34:01.224Z,-5.00
2022-12-15T09:39:03.774Z,-4.70
2022-12-15T09:44:19.203Z,-4.40
2022-12-15T09:49:50.571Z,-4.50
2022-12-15T09:54:54.091Z,-4.30
2022-12-15T10:00:16.045Z,-4.30
2022-12-15T10:06:15.470Z,-4.10
2022-12-15T10:11:14.341Z,-3.90
2022-12-15T10:16:41.296Z,-3.80
2022-12-15T10:21:43.684Z,-3.70
2022-12-15T10:27:13.580Z,-3.50
2022-12-15T10:32:20.204Z,-3.40
2022-12-15T10:37:24.341Z,-3.20
2022-12-15T10:42:27.592Z,-3.20
2022-12-15T10:47:31.587Z,-3.10
2022-12-15T10:52:37.462Z,-2.90
2022-12-15T10:57:58.929Z,-2.90
2022-12-15T11:03:01.613Z,-2.80
2022-12-15T11:08:16.783Z,-2.70
2022-12-15T11:13:21.872Z,-1.80
2022-12-15T11:18:32.541Z,-2.40
2022-12-15T11:23:50.448Z,-2.30
2022-12-15T11:29:13.448Z,-2.20
2022-12-15T11:34:19.764Z,-2.10
2022-12-15T11:39:57.195Z,-2.10
2022-12-15T11:45:36.681Z,-2.20
2022-12-15T11:51:10.068Z,-2.30
2022-12-15T11:56:18.297Z,-2.20
2022-12-15T12:01:24.429Z,-2.30
2022-12-15T12:06:51.798Z,-2.30
2022-12-15T12:12:26.178Z,-2.30
2022-12-15T12:17:48.902Z,-2.30
2022-12-15T12:23:02.863Z,-2.30
2022-12-15T12:28:21.889Z,-2.30
2022-12-15T12:33:45.418Z,-2.30
2022-12-15T12:38:56.262Z,-2.30
2022-12-15T12:44:04.166Z,-2.30
2022-12-15T12:49:30.511Z,-2.20
2022-12-15T12:54:32.839Z,-2.30
2022-12-15T12:59:42.590Z,-2.30
2022-12-15T13:05:00.967Z,-2.30
2022-12-15T13:10:09.786Z,-2.40
2022-12-15T13:15:14.513Z,-2.40
2022-12-15T13:20:23.707Z,-2.40
2022-12-15T13:25:38.883Z,-2.50
2022-12-15T13:31:16.718Z,-2.60
2022-12-15T13:36:37.831Z,-2.70
2022-12-15T13:47:28.020Z,-2.80
2022-12-15T13:53:08.489Z,-2.90
2022-12-15T13:58:16.114Z,-2.90
2022-12-15T14:03:18.577Z,-2.90
2022-12-15T14:08:23.556Z,-2.90
2022-12-15T14:13:30.856Z,-3.00
2022-12-15T14:18:35.794Z,-3.10
2022-12-15T14:24:11.012Z,-3.10
2022-12-15T14:29:06.526Z,-3.10
2022-12-15T14:34:33.822Z,-3.20
2022-12-15T14:39:45.231Z,-3.20
2022-12-15T14:44:52.068Z,-3.30
2022-12-15T14:50:01.149Z,-3.30
2022-12-15T14:55:25.112Z,-3.30
2022-12-15T15:00:27.471Z,-3.30
2022-12-15T15:05:33.179Z,-3.40
2022-12-15T15:10:35.739Z,-3.40
2022-12-15T15:15:38.553Z,-3.40
2022-12-15T15:20:41.194Z,-3.50
2022-12-15T15:25:57.092Z,-3.60
2022-12-15T15:31:05.421Z,-3.40
2022-12-15T15:36:10.869Z,-3.80
2022-12-15T15:41:19.512Z,-3.90
2022-12-15T15:46:25.714Z,-3.80
2022-12-15T15:51:30.129Z,-3.80
2022-12-15T15:56:35.347Z,-3.70
2022-12-15T16:01:37.892Z,-3.70
2022-12-15T16:06:46.737Z,-3.70
2022-12-15T16:11:51.064Z,-3.60
2022-12-15T16:16:54.718Z,-3.60
2022-12-15T16:21:57.187Z,-3.60
2022-12-15T16:26:59.585Z,-3.60
2022-12-15T16:32:01.935Z,-3.60
2022-12-15T16:37:04.783Z,-3.60
2022-12-15T16:42:11.838Z,-3.60
2022-12-15T16:47:14.335Z,-3.60
2022-12-15T16:52:21.444Z,-3.60
2022-12-15T16:57:23.823Z,-3.80
2022-12-15T17:02:29.751Z,-4.10
2022-12-15T17:07:32.441Z,-4.20
2022-12-15T17:12:37.718Z,-4.40
2022-12-15T17:17:40.526Z,-4.60
2022-12-15T17:22:44.534Z,-4.70
2022-12-15T17:27:49.247Z,-4.90
2022-12-15T17:32:51.703Z,-5.00
2022-12-15T17:37:54.111Z,-5.10
2022-12-15T17:42:56.520Z,-5.20
2022-12-15T17:47:58.917Z,-5.30
2022-12-15T17:53:03.157Z,-5.30
2022-12-15T17:58:22.748Z,-5.50
2022-12-15T18:03:25.386Z,-5.60
2022-12-15T18:08:28.600Z,-5.70
2022-12-15T18:13:35.583Z,-5.80
2022-12-15T18:19:10.048Z,-5.90
2022-12-15T18:24:15.517Z,-5.40
2022-12-15T18:29:18.392Z,-6.00
2022-12-15T18:34:21.453Z,-6.20
2022-12-15T18:39:24.293Z,-6.30
2022-12-15T18:44:31.014Z,-6.30
2022-12-15T18:49:33.378Z,-6.30
2022-12-15T18:54:36.072Z,-6.30
2022-12-15T18:59:38.434Z,-6.40
2022-12-15T19:04:41.221Z,-6.50
2022-12-15T19:09:43.728Z,-6.60
2022-12-15T19:14:49.262Z,-6.70
2022-12-15T19:20:10.232Z,-6.80
2022-12-15T19:25:25.754Z,-6.80
2022-12-15T19:30:37.096Z,-6.80
2022-12-15T19:35:46.686Z,-6.90
2022-12-15T19:40:53.294Z,-7.00
2022-12-15T19:45:55.905Z,-7.00
2022-12-15T19:50:58.363Z,-7.10
2022-12-15T19:56:01.607Z,-7.20
2022-12-15T20:01:10.862Z,-7.10
2022-12-15T20:06:17.349Z,-7.10
2022-12-15T20:11:22.699Z,-7.20
2022-12-15T20:16:25.819Z,-7.30
2022-12-15T20:21:33.164Z,-7.40
2022-12-15T20:26:37.806Z,-7.50
2022-12-15T20:31:40.224Z,-7.50
2022-12-15T20:36:42.854Z,-7.50
2022-12-15T20:41:45.267Z,-7.60
2022-12-15T20:46:47.659Z,-7.60
2022-12-15T20:51:50.920Z,-7.70
2022-12-15T20:56:53.579Z,-7.70
2022-12-15T21:01:56.239Z,-7.60
2022-12-15T21:06:58.815Z,-7.60
2022-12-15T21:12:07.351Z,-7.70
2022-12-15T21:17:19.033Z,-7.70
2022-12-15T21:22:24.192Z,-7.80
2022-12-15T21:27:29.248Z,-7.80
2022-12-15T21:32:31.665Z,-7.90
2022-12-15T21:37:34.124Z,-7.90
2022-12-15T21:42:36.884Z,-7.90
2022-12-15T21:47:57.672Z,-7.90
2022-12-15T21:53:01.382Z,-7.90
2022-12-15T21:58:19.828Z,-7.90
2022-12-15T22:03:22.505Z,-8.30
2022-12-15T22:08:25.045Z,-7.60
2022-12-15T22:13:27.550Z,-7.90
2022-12-15T22:18:31.616Z,-7.80
2022-12-15T22:23:34.570Z,-7.70
2022-12-15T22:28:36.972Z,-7.50
2022-12-15T22:33:39.419Z,-7.80
2022-12-15T22:38:41.848Z,-8.00
2022-12-15T22:43:46.509Z,-8.00
2022-12-15T22:48:49.368Z,-8.10
2022-12-15T22:53:52.888Z,-8.10
2022-12-15T22:59:02.065Z,-8.20
2022-12-15T23:04:05.647Z,-8.20
2022-12-15T23:09:08.133Z,-8.20
2022-12-15T23:14:16.345Z,-8.30
2022-12-15T23:19:24.685Z,-8.40
2022-12-15T23:24:27.559Z,-8.40
2022-12-15T23:29:29.925Z,-8.40
2022-12-15T23:34:32.350Z,-8.30
2022-12-15T23:39:34.758Z,-8.30
2022-12-15T23:44:37.518Z,-8.40
2022-12-15T23:49:40.020Z,-8.40
2022-12-15T23:54:42.406Z,-8.40
2022-12-15T23:59:44.880Z,-8.40
